Time;durP1;ratioP1;P1;durP2;ratioP2;P2;SDS_P1;SDS_P2;PMS_P1;PMS_P2;Temp;Humidity;BMP_temperature;BMP_pressure;BME280_temperature;BME280_humidity;BME280_pressure;Samples;Min_cycle;Max_cycle;Signal;HPM_P1;HPM_P2
2022/07/23 00:00:48;;;;;;;9.10;7.80;;;;;;;21.33;63.70;96791.84;108916;1265;22523;-80
2022/07/23 00:03:19;;;;;;;10.60;7.50;;;;;;;21.40;63.55;96793.90;108923;1265;23086;-80
2022/07/23 00:05:50;;;;;;;9.10;7.60;;;;;;;21.45;63.42;96788.09;107435;1262;1796704;-80
2022/07/23 00:08:22;;;;;;;10.70;7.50;;;;;;;21.42;63.34;96786.11;108980;1261;22540;-80
2022/07/23 00:10:53;;;;;;;11.30;7.40;;;;;;;21.42;63.37;96794.11;109021;1261;25399;-80
2022/07/23 00:13:24;;;;;;;9.60;7.50;;;;;;;21.44;63.42;96793.63;108993;1261;22600;-80
2022/07/23 00:15:58;;;;;;;9.30;7.10;;;;;;;21.45;63.20;96788.87;108799;1261;91547;-80
2022/07/23 00:18:30;;;;;;;10.80;7.70;;;;;;;21.48;63.15;96790.02;108946;1265;22569;-80
2022/07/23 00:21:11;;;;;;;;;;;;;;;;;;;;;
2022/07/23 00:23:43;;;;;;;9.00;7.30;;;;;;;21.48;62.73;96784.25;108969;1261;22542;-80
2022/07/23 00:26:14;;;;;;;9.80;6.90;;;;;;;21.47;62.74;96783.69;107940;1262;1159357;-80
2022/07/23 00:28:47;;;;;;;11.60;7.10;;;;;;;21.47;62.77;96783.38;108972;1261;22560;-80
2022/07/23 00:31:19;;;;;;;8.90;7.10;;;;;;;21.47;62.92;96778.66;108983;1261;22549;-80
2022/07/23 00:33:52;;;;;;;10.50;7.30;;;;;;;21.46;62.88;96782.88;108854;1265;22518;-80
2022/07/23 00:36:27;;;;;;;10.10;7.30;;;;;;;21.44;63.00;96782.05;108840;1262;71382;-80
2022/07/23 00:39:04;;;;;;;10.40;7.00;;;;;;;21.42;62.97;96780.77;108971;1261;22540;-80
2022/07/23 00:41:38;;;;;;;9.90;7.70;;;;;;;21.39;62.92;96781.73;108975;1262;22560;-80
2022/07/23 00:44:28;;;;;;;8.20;7.20;;;;;;;21.30;62.80;96780.90;108977;1261;22529;-80
2022/07/23 00:47:05;;;;;;;9.30;7.20;;;;;;;21.20;63.06;96782.05;108804;1261;98038;-80
2022/07/23 00:49:40;;;;;;;8.10;7.10;;;;;;;21.19;63.25;96778.86;108884;1262;23904;-80
2022/07/23 00:52:11;;;;;;;8.20;6.60;;;;;;;21.19;63.10;96777.72;108708;1265;22692;-80
2022/07/23 00:54:42;;;;;;;7.50;6.60;;;;;;;21.16;62.99;96781.41;108963;1262;25373;-80
2022/07/23 00:57:19;;;;;;;10.20;7.20;;;;;;;20.92;63.07;96774.00;107278;1261;2044620;-80
2022/07/23 00:59:52;;;;;;;9.50;6.90;;;;;;;20.76;63.48;96774.54;108957;1261;22543;-80
2022/07/23 01:02:23;;;;;;;9.00;6.80;;;;;;;20.78;63.88;96778.81;108968;1262;22586;-80
2022/07/23 01:04:56;;;;;;;9.10;7.60;;;;;;;20.71;63.91;96780.26;108966;1261;22599;-80
2022/07/23 01:07:28;;;;;;;8.40;6.30;;;;;;;20.61;64.02;96782.02;108790;1261;92639;-80
2022/07/23 01:10:00;;;;;;;8.80;6.50;;;;;;;20.56;64.34;96782.50;108991;1261;22665;-80
2022/07/23 01:12:36;;;;;;;10.00;7.90;;;;;;;20.61;64.82;96781.88;108605;1261;22529;-79
2022/07/23 01:15:12;;;;;;;10.00;7.10;;;;;;;20.77;64.66;96777.50;108403;1261;109571;-79
2022/07/23 01:17:44;;;;;;;10.70;7.00;;;;;;;20.85;64.49;96775.27;108998;1261;25494;-80
2022/07/23 01:20:16;;;;;;;8.70;6.80;;;;;;;20.89;64.50;96774.15;108941;1261;22701;-80
2022/07/23 01:22:48;;;;;;;10.30;7.10;;;;;;;20.94;64.67;96775.43;108918;1264;22631;-80
2022/07/23 01:25:22;;;;;;;12.50;7.40;;;;;;;20.99;64.54;96773.92;108791;1261;83235;-79
2022/07/23 01:27:54;;;;;;;10.50;7.30;;;;;;;21.06;64.21;96778.81;108959;1261;22539;-80
2022/07/23 01:30:27;;;;;;;11.20;7.40;;;;;;;21.11;64.12;96776.94;108953;1261;25386;-80
2022/07/23 01:33:00;;;;;;;9.80;7.20;;;;;;;21.14;64.16;96777.20;108949;1264;22570;-80
2022/07/23 01:35:35;;;;;;;10.80;7.50;;;;;;;21.19;64.07;96776.71;108695;1264;115946;-80
2022/07/23 01:38:11;;;;;;;9.60;7.50;;;;;;;21.19;63.89;96775.02;108977;1261;22565;-80
2022/07/23 01:40:42;;;;;;;9.50;7.00;;;;;;;21.20;64.11;96776.58;108965;1261;25299;-80
2022/07/23 01:43:16;;;;;;;10.60;7.40;;;;;;;21.20;64.02;96776.12;108855;1264;22535;-80
2022/07/23 01:45:48;;;;;;;10.70;7.70;;;;;;;21.19;64.17;96777.95;108785;1261;95292;-80
2022/07/23 01:48:22;;;;;;;9.30;7.40;;;;;;;21.17;64.25;96777.67;108998;1261;22536;-80
2022/07/23 01:50:53;;;;;;;10.60;8.20;;;;;;;21.15;64.33;96780.77;108910;1264;22538;-80
2022/07/23 01:53:25;;;;;;;9.80;7.40;;;;;;;21.14;64.25;96779.96;108934;1264;23002;-80
2022/07/23 01:55:57;;;;;;;12.30;7.60;;;;;;;21.11;64.40;96777.34;107475;1261;1816938;-80
2022/07/23 01:58:29;;;;;;;12.70;8.00;;;;;;;21.11;64.31;96778.23;109008;1261;22593;-80
2022/07/23 02:01:05;;;;;;;10.70;7.20;;;;;;;21.10;64.47;96780.30;108917;1262;22564;-80
2022/07/23 02:03:45;;;;;;;10.90;7.80;;;;;;;21.09;64.39;96775.64;108914;1264;24171;-80
2022/07/23 02:06:21;;;;;;;10.60;8.10;;;;;;;21.03;64.53;96774.79;107713;1261;1542226;-80
2022/07/23 02:08:52;;;;;;;8.30;6.70;;;;;;;21.04;64.62;96778.90;109036;1261;22649;-80
2022/07/23 02:11:26;;;;;;;9.10;7.70;;;;;;;21.03;64.74;96777.20;108935;1261;24131;-80
2022/07/23 02:14:01;;;;;;;11.80;8.20;;;;;;;20.99;64.64;96777.55;108947;1262;23952;-80
2022/07/23 02:16:37;;;;;;;9.70;8.30;;;;;;;20.95;64.98;96779.48;108803;1261;150806;-80
2022/07/23 02:19:26;;;;;;;9.50;8.10;;;;;;;20.83;65.52;96782.23;108937;1261;22674;-80
2022/07/23 02:22:05;;;;;;;11.40;7.80;;;;;;;20.69;65.95;96778.79;108976;1261;22625;-80
2022/07/23 02:24:38;;;;;;;11.80;8.80;;;;;;;20.56;66.31;96777.02;108964;1261;22541;-80
2022/07/23 02:27:21;;;;;;;10.20;8.40;;;;;;;20.45;66.84;96777.16;108447;1264;286090;-80
2022/07/23 02:29:52;;;;;;;11.50;8.10;;;;;;;20.37;67.36;96778.40;108995;1261;22546;-80
2022/07/23 02:32:39;;;;;;;11.20;8.60;;;;;;;20.31;67.66;96773.70;108952;1261;22566;-80
2022/07/23 02:35:16;;;;;;;9.30;8.00;;;;;;;20.28;67.57;96778.13;107499;1261;1904806;-79
2022/07/23 02:37:48;;;;;;;10.50;7.90;;;;;;;20.28;67.55;96777.59;108936;1262;32955;-80
2022/07/23 02:40:19;;;;;;;9.10;7.40;;;;;;;20.30;67.40;96772.96;108967;1264;22566;-80
2022/07/23 02:42:54;;;;;;;9.30;8.20;;;;;;;20.31;67.39;96772.14;108966;1261;22553;-80
2022/07/23 02:45:32;;;;;;;10.20;8.10;;;;;;;20.32;67.35;96770.33;108717;1262;131613;-80
2022/07/23 02:48:03;;;;;;;9.00;7.60;;;;;;;20.36;67.10;96774.98;109004;1261;22601;-80
2022/07/23 02:50:40;;;;;;;11.50;8.10;;;;;;;20.37;67.19;96770.79;108939;1261;23437;-80
2022/07/23 02:53:11;;;;;;;11.50;7.90;;;;;;;20.39;66.93;96769.77;108953;1261;22556;-80
2022/07/23 02:55:42;;;;;;;8.50;7.50;;;;;;;20.42;66.73;96769.52;107145;1261;2090812;-80
2022/07/23 02:58:18;;;;;;;10.90;7.60;;;;;;;20.46;66.59;96768.94;108949;1263;22529;-80
2022/07/23 03:00:52;;;;;;;10.70;7.90;;;;;;;20.47;66.48;96769.13;108959;1264;22666;-80
2022/07/23 03:03:29;;;;;;;8.80;7.40;;;;;;;20.50;66.10;96768.44;108969;1261;22549;-79
2022/07/23 03:06:15;;;;;;;8.60;7.50;;;;;;;20.54;65.95;96769.11;108717;1262;91197;-79
2022/07/23 03:08:46;;;;;;;8.80;7.50;;;;;;;20.54;65.96;96769.58;108946;1261;22584;-79
2022/07/23 03:11:24;;;;;;;9.10;7.40;;;;;;;20.57;65.63;96772.52;108636;1264;22709;-79
2022/07/23 03:13:56;;;;;;;10.00;7.50;;;;;;;20.58;65.58;96776.26;108946;1264;22708;-79
2022/07/23 03:16:30;;;;;;;9.70;7.20;;;;;;;20.61;65.50;96780.17;108467;1263;335563;-80
2022/07/23 03:19:01;;;;;;;10.50;7.40;;;;;;;20.62;65.24;96781.83;108897;1264;22546;-79
2022/07/23 03:21:34;;;;;;;8.20;7.20;;;;;;;20.64;65.17;96778.95;108966;1264;22578;-80
2022/07/23 03:24:18;;;;;;;8.80;7.40;;;;;;;20.67;65.19;96775.80;108937;1264;22580;-80
2022/07/23 03:26:51;;;;;;;8.90;7.20;;;;;;;20.68;65.19;96771.30;106620;1264;2705466;-79
2022/07/23 03:29:24;;;;;;;10.50;7.70;;;;;;;20.71;64.96;96769.86;108506;1264;24072;-80
2022/07/23 03:31:58;;;;;;;8.80;7.50;;;;;;;20.75;65.01;96767.89;108548;1264;22673;-80
2022/07/23 03:34:34;;;;;;;8.60;7.40;;;;;;;20.79;65.16;96768.94;108614;1264;22552;-75
2022/07/23 03:37:10;;;;;;;10.00;7.50;;;;;;;20.84;65.05;96768.31;108406;1263;118583;-74
2022/07/23 03:39:41;;;;;;;9.50;7.40;;;;;;;20.86;64.93;96768.40;108528;1264;22559;-75
2022/07/23 03:42:12;;;;;;;8.60;6.80;;;;;;;20.92;64.88;96769.91;108480;1264;22531;-75
2022/07/23 03:44:44;;;;;;;9.70;7.40;;;;;;;20.96;64.70;96769.59;108491;1263;23267;-75
2022/07/23 03:47:16;;;;;;;11.70;7.30;;;;;;;21.02;64.77;96767.00;108431;1264;30222;-75
2022/07/23 03:49:47;;;;;;;9.00;7.50;;;;;;;21.09;64.58;96765.48;108538;1264;23268;-74
2022/07/23 03:52:18;;;;;;;7.40;6.60;;;;;;;21.15;64.54;96765.30;108534;1264;25986;-74
2022/07/23 03:54:50;;;;;;;10.30;7.70;;;;;;;21.21;64.43;96764.68;108428;1264;24972;-74
2022/07/23 03:57:21;;;;;;;10.00;7.80;;;;;;;21.29;64.33;96769.25;108399;1264;27618;-74
2022/07/23 03:59:52;;;;;;;9.50;7.50;;;;;;;21.36;64.35;96772.27;108498;1264;22683;-75
2022/07/23 04:02:23;;;;;;;8.30;7.40;;;;;;;21.45;64.13;96771.36;108475;1264;22517;-75
2022/07/23 04:04:54;;;;;;;9.00;7.10;;;;;;;21.52;64.07;96770.78;108542;1264;22578;-75
2022/07/23 04:07:25;;;;;;;8.60;7.70;;;;;;;21.58;64.04;96772.20;108460;1264;33158;-75
2022/07/23 04:09:57;;;;;;;10.10;7.60;;;;;;;21.63;63.77;96773.55;108500;1264;22580;-74
2022/07/23 04:12:28;;;;;;;11.20;8.00;;;;;;;21.63;63.72;96774.09;108555;1264;22546;-75
2022/07/23 04:14:59;;;;;;;9.80;7.70;;;;;;;21.56;64.01;96776.23;108527;1264;26052;-75
2022/07/23 04:17:30;;;;;;;8.90;7.90;;;;;;;21.52;64.13;96769.23;108465;1264;30731;-75
2022/07/23 04:20:02;;;;;;;9.40;7.80;;;;;;;21.52;64.22;96771.01;108580;1264;22789;-75
2022/07/23 04:22:33;;;;;;;10.80;8.10;;;;;;;21.54;64.21;96765.06;108550;1264;25257;-74
2022/07/23 04:25:06;;;;;;;9.80;7.50;;;;;;;21.57;64.33;96764.36;108616;1263;22549;-75
2022/07/23 04:27:37;;;;;;;10.00;8.10;;;;;;;21.61;64.19;96760.71;108626;1264;22687;-75
2022/07/23 04:30:12;;;;;;;15.30;13.80;;;;;;;21.66;64.09;96758.59;108558;1264;22551;-75
2022/07/23 04:32:43;;;;;;;10.10;8.50;;;;;;;21.76;64.07;96762.24;108619;1263;22565;-75
2022/07/23 04:35:14;;;;;;;10.20;8.60;;;;;;;21.85;64.11;96764.64;108480;1264;32394;-75
2022/07/23 04:37:46;;;;;;;13.20;10.50;;;;;;;21.99;63.68;96760.82;108473;1264;22545;-74
2022/07/23 04:40:17;;;;;;;9.30;7.50;;;;;;;22.16;63.68;96756.17;108522;1264;22548;-75
2022/07/23 04:42:49;;;;;;;9.60;8.00;;;;;;;22.35;63.34;96756.16;108496;1264;22618;-74
2022/07/23 04:45:21;;;;;;;9.30;8.30;;;;;;;22.53;63.23;96752.41;108428;1264;34326;-75
2022/07/23 04:47:52;;;;;;;9.80;8.20;;;;;;;22.69;62.62;96748.29;108419;1264;23972;-75
2022/07/23 04:50:24;;;;;;;9.00;8.10;;;;;;;22.80;62.36;96744.95;108551;1264;22535;-75
2022/07/23 04:52:55;;;;;;;10.00;7.40;;;;;;;22.88;61.79;96742.06;108493;1264;23914;-75
2022/07/23 04:55:26;;;;;;;9.70;7.90;;;;;;;22.91;61.52;96740.58;108419;1264;35559;-75
2022/07/23 04:58:00;;;;;;;8.90;7.60;;;;;;;22.94;61.43;96735.48;108518;1264;25355;-75
2022/07/23 05:00:34;;;;;;;9.10;7.00;;;;;;;23.01;61.12;96735.77;108496;1264;23926;-75
2022/07/23 05:03:08;;;;;;;8.80;7.00;;;;;;;23.11;60.54;96736.05;108499;1264;23930;-75
2022/07/23 05:05:40;;;;;;;7.90;7.10;;;;;;;23.29;60.70;96736.94;108449;1263;31237;-75
2022/07/23 05:08:11;;;;;;;8.70;7.00;;;;;;;24.11;60.37;96737.31;108502;1264;22552;-75
2022/07/23 05:10:43;;;;;;;10.90;7.20;;;;;;;25.90;58.81;96738.96;108502;1264;22520;-75
2022/07/23 05:13:15;;;;;;;8.70;6.70;;;;;;;27.84;55.44;96732.27;108574;1264;22573;-75
2022/07/23 05:15:49;;;;;;;8.50;6.60;;;;;;;29.34;52.23;96731.98;108395;1264;80212;-75
2022/07/23 05:18:20;;;;;;;7.20;5.90;;;;;;;30.61;49.61;96737.88;108526;1263;24319;-76
2022/07/23 05:20:52;;;;;;;7.20;6.30;;;;;;;31.81;47.51;96736.91;108522;1264;25374;-75
2022/07/23 05:23:23;;;;;;;9.50;6.40;;;;;;;33.14;44.69;96742.50;108517;1264;24248;-76
2022/07/23 05:25:54;;;;;;;7.90;5.90;;;;;;;34.16;42.66;96744.36;108435;1263;30049;-75
2022/07/23 05:28:26;;;;;;;6.40;5.70;;;;;;;35.03;40.15;96746.08;108535;1264;24205;-76
2022/07/23 05:30:58;;;;;;;8.00;6.50;;;;;;;35.36;38.88;96747.23;108555;1264;25239;-76
2022/07/23 05:33:30;;;;;;;8.00;6.10;;;;;;;35.12;37.96;96748.50;108575;1264;24094;-76
2022/07/23 05:36:06;;;;;;;7.00;6.30;;;;;;;33.79;38.01;96747.02;108411;1264;30990;-76
2022/07/23 05:38:38;;;;;;;6.80;5.60;;;;;;;33.15;38.76;96745.02;108563;1264;22730;-76
2022/07/23 05:41:09;;;;;;;6.80;5.90;;;;;;;33.92;38.01;96745.73;108498;1262;22876;-75
2022/07/23 05:43:41;;;;;;;5.90;5.30;;;;;;;34.72;37.33;96744.31;108415;1264;22559;-75
2022/07/23 05:46:12;;;;;;;9.00;6.30;;;;;;;34.67;36.49;96739.33;108294;1264;156753;-75
2022/07/23 05:48:45;;;;;;;6.60;5.80;;;;;;;33.57;36.80;96738.32;108507;1264;22540;-75
2022/07/23 05:51:20;;;;;;;10.00;6.30;;;;;;;33.70;37.82;96736.16;108492;1264;22566;-76
2022/07/23 05:53:55;;;;;;;6.50;5.90;;;;;;;35.09;36.82;96739.14;108509;1263;22666;-75
2022/07/23 05:56:26;;;;;;;6.70;5.50;;;;;;;36.47;36.01;96733.83;108415;1264;34493;-76
2022/07/23 05:58:57;;;;;;;7.60;5.40;;;;;;;37.39;33.72;96732.44;108518;1264;25377;-76
2022/07/23 06:01:29;;;;;;;7.00;5.60;;;;;;;36.95;33.94;96733.89;108422;1264;22551;-76
2022/07/23 06:04:04;;;;;;;6.80;5.50;;;;;;;36.59;32.69;96732.41;108475;1264;22551;-76
2022/07/23 06:06:35;;;;;;;6.40;5.60;;;;;;;36.69;32.76;96730.41;108465;1264;27587;-76
2022/07/23 06:09:07;;;;;;;6.50;5.40;;;;;;;37.36;32.56;96729.13;108557;1261;22524;-76
2022/07/23 06:11:38;;;;;;;7.60;5.40;;;;;;;38.35;32.10;96733.39;108567;1261;22557;-76
2022/07/23 06:14:09;;;;;;;8.20;5.70;;;;;;;39.19;30.35;96736.42;108557;1261;22681;-76
2022/07/23 06:16:41;;;;;;;6.20;4.60;;;;;;;39.40;30.27;96735.84;108529;1261;29584;-79
2022/07/23 06:19:13;;;;;;;6.00;5.20;;;;;;;40.00;29.10;96734.17;108612;1260;22555;-79
2022/07/23 06:21:44;;;;;;;6.20;5.20;;;;;;;40.34;28.87;96727.97;108533;1261;22558;-79
2022/07/23 06:24:16;;;;;;;5.70;5.20;;;;;;;40.83;28.21;96722.15;108596;1260;22524;-79
2022/07/23 06:26:48;;;;;;;6.00;4.60;;;;;;;40.80;27.19;96717.55;108396;1261;79388;-79
2022/07/23 06:29:19;;;;;;;6.40;5.10;;;;;;;40.59;27.25;96720.61;108541;1263;22635;-79
2022/07/23 06:31:50;;;;;;;6.50;4.90;;;;;;;40.31;26.52;96716.92;108553;1264;22517;-80
2022/07/23 06:34:22;;;;;;;4.80;4.30;;;;;;;39.80;27.73;96716.88;108548;1261;22609;-79
2022/07/23 06:36:53;;;;;;;5.60;4.70;;;;;;;40.68;27.24;96713.09;108433;1261;73019;-79
2022/07/23 06:39:24;;;;;;;5.50;4.80;;;;;;;41.07;26.95;96712.27;108590;1261;22555;-79
2022/07/23 06:41:56;;;;;;;6.00;4.60;;;;;;;41.70;26.29;96715.63;108593;1261;23649;-81
2022/07/23 06:44:27;;;;;;;8.10;4.80;;;;;;;41.55;25.73;96713.63;108572;1261;22835;-79
2022/07/23 06:46:59;;;;;;;5.30;4.80;;;;;;;41.47;26.12;96710.51;108476;1261;39037;-79
2022/07/23 06:49:30;;;;;;;7.30;4.70;;;;;;;41.41;25.90;96709.95;108591;1261;22541;-79
2022/07/23 06:52:01;;;;;;;6.30;4.50;;;;;;;42.33;26.20;96711.38;108622;1261;22611;-81
2022/07/23 06:54:35;;;;;;;8.00;4.90;;;;;;;43.17;24.95;96707.02;108643;1261;22529;-81
2022/07/23 06:57:06;;;;;;;5.20;4.50;;;;;;;43.25;24.79;96707.04;108531;1261;41993;-81
2022/07/23 06:59:40;;;;;;;5.60;4.90;;;;;;;44.25;24.24;96707.88;108636;1261;22534;-81
2022/07/23 07:02:14;;;;;;;6.50;4.50;;;;;;;44.46;24.21;96706.10;108589;1261;22990;-81
2022/07/23 07:04:45;;;;;;;5.40;4.10;;;;;;;45.35;23.71;96700.11;108616;1261;23007;-81
2022/07/23 07:07:16;;;;;;;6.20;4.70;;;;;;;46.48;23.34;96700.12;108478;1261;30805;-81
2022/07/23 07:09:47;;;;;;;6.90;4.50;;;;;;;47.76;22.04;96692.95;108568;1264;22635;-81
2022/07/23 07:12:19;;;;;;;6.50;4.40;;;;;;;47.81;20.69;96689.49;108519;1264;22788;-81
2022/07/23 07:14:50;;;;;;;5.70;4.30;;;;;;;47.84;21.09;96690.59;108550;1264;22524;-81
2022/07/23 07:17:21;;;;;;;5.10;4.60;;;;;;;48.17;20.21;96688.86;108545;1263;31066;-81
2022/07/23 07:19:55;;;;;;;4.80;4.30;;;;;;;48.44;20.01;96692.80;108538;1264;24392;-81
2022/07/23 07:22:26;;;;;;;5.40;4.10;;;;;;;48.18;19.08;96689.34;108541;1264;22532;-81
2022/07/23 07:24:57;;;;;;;4.70;4.30;;;;;;;47.35;19.41;96688.87;108563;1264;22554;-81
2022/07/23 07:27:28;;;;;;;5.80;5.30;;;;;;;46.42;19.23;96690.83;108420;1264;33344;-81
2022/07/23 07:29:59;;;;;;;5.20;4.30;;;;;;;46.39;19.73;96688.46;108561;1263;22598;-82
2022/07/23 07:32:32;;;;;;;5.60;4.10;;;;;;;46.59;20.14;96686.25;108528;1264;22530;-82
2022/07/23 07:35:03;;;;;;;5.90;4.50;;;;;;;48.15;20.23;96681.98;108534;1263;23858;-82
2022/07/23 07:37:34;;;;;;;5.70;4.60;;;;;;;49.72;19.34;96683.55;108552;1263;23371;-82
2022/07/23 07:40:06;;;;;;;4.20;3.80;;;;;;;50.82;18.88;96674.43;108526;1264;24318;-81
2022/07/23 07:42:44;;;;;;;4.90;4.50;;;;;;;51.47;17.86;96672.66;108554;1264;22562;-82
2022/07/23 07:45:16;;;;;;;5.10;4.50;;;;;;;50.61;17.14;96671.92;108442;1263;31529;-81
2022/07/23 07:47:47;;;;;;;4.50;4.20;;;;;;;50.24;17.90;96670.02;108501;1264;22536;-82
2022/07/23 07:50:18;;;;;;;4.80;4.40;;;;;;;50.72;17.98;96674.50;108515;1261;22556;-82
2022/07/23 07:52:50;;;;;;;5.90;4.60;;;;;;;51.09;17.26;96674.39;108549;1264;22522;-82
2022/07/23 07:55:21;;;;;;;4.80;4.20;;;;;;;51.57;17.16;96670.18;108475;1264;32284;-81
2022/07/23 07:57:52;;;;;;;5.40;4.50;;;;;;;51.64;16.90;96672.43;108549;1263;22627;-82
2022/07/23 08:00:23;;;;;;;4.60;4.20;;;;;;;51.67;16.36;96669.02;108544;1264;25404;-82
2022/07/23 08:02:55;;;;;;;4.70;4.30;;;;;;;52.05;16.62;96668.20;108508;1264;22521;-82
2022/07/23 08:05:31;;;;;;;5.40;4.80;;;;;;;51.00;16.42;96670.95;108522;1264;26230;-81
2022/07/23 08:08:02;;;;;;;6.00;4.90;;;;;;;50.57;17.00;96668.08;108395;1264;24475;-83
2022/07/23 08:10:34;;;;;;;6.70;5.30;;;;;;;51.02;17.05;96670.95;108577;1264;22574;-84
2022/07/23 08:13:05;;;;;;;5.90;5.40;;;;;;;51.17;16.44;96673.45;109008;1261;24199;-84
2022/07/23 08:15:36;;;;;;;5.20;4.70;;;;;;;51.60;16.47;96673.26;108883;1263;28185;-84
2022/07/23 08:18:08;;;;;;;5.80;4.80;;;;;;;52.45;16.20;96674.89;108994;1263;23352;-83
2022/07/23 08:20:42;;;;;;;6.50;5.10;;;;;;;52.70;15.42;96671.77;108918;1264;25408;-83
2022/07/23 08:23:18;;;;;;;7.40;5.30;;;;;;;52.93;15.59;96674.46;108969;1264;22695;-84
2022/07/23 08:25:50;;;;;;;7.80;5.50;;;;;;;53.81;15.51;96678.86;108834;1261;85407;-84
2022/07/23 08:28:21;;;;;;;6.20;4.70;;;;;;;54.44;14.64;96683.89;108954;1264;22555;-85
2022/07/23 08:30:53;;;;;;;5.60;5.10;;;;;;;54.25;14.53;96685.27;109008;1262;22621;-85
2022/07/23 08:33:24;;;;;;;5.80;5.20;;;;;;;54.22;14.50;96686.77;109151;1261;22546;-85
2022/07/23 08:35:56;;;;;;;6.10;5.40;;;;;;;54.38;14.31;96690.60;108829;1261;73208;-85
2022/07/23 08:38:28;;;;;;;5.80;5.30;;;;;;;53.85;13.84;96689.02;108986;1263;22542;-83
2022/07/23 08:40:59;;;;;;;5.60;5.10;;;;;;;53.36;14.58;96687.47;108919;1262;22553;-84
2022/07/23 08:43:32;;;;;;;6.40;4.90;;;;;;;52.99;13.60;96680.59;108949;1264;22580;-84
2022/07/23 08:46:04;;;;;;;5.10;4.70;;;;;;;52.50;14.51;96680.20;108820;1261;68942;-83
2022/07/23 08:48:37;;;;;;;4.70;4.40;;;;;;;53.04;14.54;96682.86;108932;1264;22551;-84
2022/07/23 08:51:10;;;;;;;4.90;4.50;;;;;;;53.71;14.07;96685.06;108532;1264;23839;-84
2022/07/23 08:53:41;;;;;;;4.70;4.30;;;;;;;52.37;12.79;96675.77;108992;1261;22524;-83
2022/07/23 08:56:12;;;;;;;4.90;4.50;;;;;;;49.62;13.98;96675.30;108540;1264;31197;-83
2022/07/23 08:58:44;;;;;;;5.00;4.00;;;;;;;48.81;14.82;96664.58;108520;1263;25009;-83
2022/07/23 09:01:15;;;;;;;5.00;4.60;;;;;;;49.05;15.21;96663.68;108569;1264;22520;-83
2022/07/23 09:03:46;;;;;;;4.70;4.30;;;;;;;49.27;14.91;96662.86;108535;1264;24239;-84
2022/07/23 09:06:18;;;;;;;4.70;4.30;;;;;;;49.47;14.56;96659.96;108499;1264;25488;-83
2022/07/23 09:08:49;;;;;;;6.20;4.60;;;;;;;48.20;14.65;96654.34;108959;1261;22546;-83
2022/07/23 09:11:21;;;;;;;5.70;4.30;;;;;;;47.02;15.13;96645.60;108599;1261;22520;-83
2022/07/23 09:13:54;;;;;;;5.80;4.60;;;;;;;45.13;15.78;96637.45;108568;1261;24489;-84
2022/07/23 09:16:30;;;;;;;6.40;5.00;;;;;;;43.36;17.08;96635.19;108513;1261;25116;-83
2022/07/23 09:19:04;;;;;;;5.10;4.70;;;;;;;41.77;18.85;96632.86;108975;1261;22564;-83
2022/07/23 09:21:38;;;;;;;5.60;5.10;;;;;;;40.85;19.40;96635.14;108598;1261;24275;-82
2022/07/23 09:24:15;;;;;;;5.30;4.80;;;;;;;39.17;20.41;96635.63;108997;1264;22612;-82
2022/07/23 09:26:49;;;;;;;6.90;5.40;;;;;;;37.84;21.89;96630.86;108748;1261;118878;-83
2022/07/23 09:29:25;;;;;;;6.50;5.60;;;;;;;37.96;22.61;96623.25;109005;1261;22507;-83
2022/07/23 09:31:58;;;;;;;5.60;5.10;;;;;;;37.91;22.87;96622.58;108968;1261;22762;-82
2022/07/23 09:34:38;;;;;;;5.80;5.20;;;;;;;37.23;22.94;96620.20;108984;1261;22517;-83
2022/07/23 09:37:14;;;;;;;6.50;5.90;;;;;;;36.80;24.27;96622.94;105283;1261;2432537;-83
2022/07/23 09:39:48;;;;;;;5.60;5.10;;;;;;;36.67;24.27;96621.89;108970;1261;22522;-84
2022/07/23 09:42:21;;;;;;;7.10;5.70;;;;;;;36.70;24.77;96620.44;108909;1264;22575;-82
2022/07/23 09:44:56;;;;;;;6.40;5.80;;;;;;;36.08;24.60;96624.87;108943;1261;23080;-82
2022/07/23 09:47:30;;;;;;;10.10;6.40;;;;;;;35.41;25.38;96625.55;108790;1261;79244;-81
2022/07/23 09:50:08;;;;;;;7.00;5.60;;;;;;;35.13;26.31;96629.85;109013;1260;25248;-82
2022/07/23 09:52:49;;;;;;;6.20;5.60;;;;;;;35.25;26.62;96629.54;108986;1260;23995;-82
2022/07/23 09:55:31;;;;;;;6.10;5.50;;;;;;;35.54;26.18;96624.75;108824;1261;93587;-81
2022/07/23 09:58:03;;;;;;;6.10;5.60;;;;;;;35.72;26.44;96625.44;109002;1261;24380;-82
2022/07/23 10:00:36;;;;;;;6.60;6.00;;;;;;;35.75;26.10;96624.64;108925;1261;22644;-82
2022/07/23 10:03:10;;;;;;;6.70;6.00;;;;;;;35.31;26.18;96618.49;108978;1261;22551;-82
2022/07/23 10:05:44;;;;;;;6.40;5.80;;;;;;;34.47;27.02;96622.35;108663;1261;127789;-82
2022/07/23 10:08:18;;;;;;;9.00;6.20;;;;;;;34.27;27.49;96616.20;108926;1261;23435;-82
2022/07/23 10:10:51;;;;;;;7.00;5.50;;;;;;;34.04;27.69;96613.64;108949;1264;22552;-82
2022/07/23 10:16:12;;;;;;;7.30;6.10;;;;;;;33.96;28.09;96613.61;108776;1263;95620;-82
2022/07/23 10:18:44;;;;;;;8.30;6.30;;;;;;;33.79;27.90;96613.92;108930;1263;22589;-82
2022/07/23 10:21:23;;;;;;;7.30;5.70;;;;;;;34.11;28.54;96606.78;108738;1264;22559;-82
2022/07/23 10:24:18;;;;;;;8.20;6.40;;;;;;;34.39;28.50;96604.31;109014;1263;22701;-83
2022/07/23 10:27:00;;;;;;;6.90;6.30;;;;;;;33.80;28.52;96606.20;108980;1264;86625;-82
2022/07/23 10:29:43;;;;;;;6.60;5.80;;;;;;;33.23;29.23;96602.98;108897;1264;22617;-82
2022/07/23 10:32:27;;;;;;;7.00;6.30;;;;;;;33.25;29.70;96601.36;108917;1263;24466;-82
2022/07/23 10:35:11;;;;;;;7.30;6.60;;;;;;;33.30;29.53;96599.30;108942;1264;23241;-82
2022/07/23 10:37:46;;;;;;;9.10;6.30;;;;;;;33.36;29.41;96594.38;108944;1263;22550;-83
2022/07/23 10:40:21;;;;;;;7.50;6.80;;;;;;;33.03;29.76;96594.55;108931;1264;22570;-83
2022/07/23 10:42:55;;;;;;;7.70;6.90;;;;;;;32.73;30.59;96592.50;108970;1264;25488;-83
2022/07/23 10:45:30;;;;;;;7.70;6.90;;;;;;;32.66;31.43;96592.65;108777;1264;79667;-82
2022/07/23 10:48:15;;;;;;;7.40;6.70;;;;;;;32.80;31.20;96597.09;108994;1264;22549;-82
2022/07/23 10:51:07;;;;;;;7.50;6.50;;;;;;;32.98;31.09;96599.07;108951;1264;25245;-82
2022/07/23 10:53:59;;;;;;;7.90;6.70;;;;;;;33.40;31.45;96595.92;108926;1263;24258;-82
2022/07/23 10:57:08;;;;;;;7.00;6.30;;;;;;;33.46;30.43;96589.52;108810;1264;104912;-83
2022/07/23 11:00:25;;;;;;;8.10;7.30;;;;;;;33.14;30.96;96587.56;108921;1263;22591;-82
2022/07/23 11:02:58;;;;;;;6.90;6.30;;;;;;;33.03;30.63;96577.27;108292;1267;24819;-82
2022/07/23 11:05:43;;;;;;;8.30;7.50;;;;;;;33.14;30.69;96578.77;108612;1264;79591;-84
2022/07/23 11:08:17;;;;;;;8.00;6.20;;;;;;;33.25;31.28;96575.70;109004;1264;24317;-83
2022/07/23 11:11:12;;;;;;;6.70;6.10;;;;;;;33.25;30.77;96571.85;109013;1263;22520;-83
2022/07/23 11:13:48;;;;;;;8.70;6.60;;;;;;;32.85;31.00;96573.77;108973;1263;22743;-84
2022/07/23 11:16:27;;;;;;;7.40;6.70;;;;;;;32.58;31.43;96573.27;108677;1264;168857;-83
2022/07/23 11:19:07;;;;;;;8.90;7.30;;;;;;;32.42;32.10;96571.89;108958;1263;24989;-83
2022/07/23 11:21:59;;;;;;;7.60;6.80;;;;;;;32.55;32.74;96573.58;109006;1264;22643;-83
2022/07/23 11:24:31;;;;;;;7.40;6.60;;;;;;;32.63;32.19;96568.79;108915;1264;24230;-83
2022/07/23 11:27:04;;;;;;;8.30;7.50;;;;;;;32.56;32.40;96563.52;108798;1264;73099;-83
2022/07/23 11:29:54;;;;;;;8.40;7.50;;;;;;;32.80;32.33;96557.95;108971;1264;22528;-83
2022/07/23 11:32:42;;;;;;;7.10;6.40;;;;;;;33.14;32.19;96560.39;108938;1264;22571;-84
2022/07/23 11:35:27;;;;;;;10.20;7.10;;;;;;;33.31;31.81;96558.21;108427;1264;157703;-83
2022/07/23 11:38:07;;;;;;;9.40;7.70;;;;;;;33.16;31.82;96554.00;108988;1264;22570;-84
2022/07/23 11:40:38;;;;;;;9.20;7.70;;;;;;;32.97;31.91;96549.27;108941;1264;25287;-84
2022/07/23 11:43:11;;;;;;;7.70;6.90;;;;;;;33.06;32.07;96544.73;108919;1264;22540;-83
2022/07/23 11:45:43;;;;;;;8.00;6.70;;;;;;;33.24;32.06;96541.26;108777;1263;76285;-83
2022/07/23 11:48:21;;;;;;;9.60;8.20;;;;;;;33.14;31.94;96544.31;108944;1264;24045;-83
2022/07/23 11:50:53;;;;;;;9.00;7.00;;;;;;;32.83;32.07;96537.48;108964;1263;22902;-83
2022/07/23 11:53:29;;;;;;;8.80;7.20;;;;;;;32.59;32.36;96535.79;108899;1264;22689;-83
2022/07/23 11:56:09;;;;;;;8.30;7.30;;;;;;;32.34;32.66;96535.98;108841;1264;90410;-83
2022/07/23 11:58:55;;;;;;;7.90;7.10;;;;;;;32.35;32.95;96533.14;108941;1264;22558;-83